createdAt,value
2022-10-04T00:01:48.127Z,11.25
2022-10-04T00:04:23.397Z,11.25
2022-10-04T00:06:59.319Z,11.00
2022-10-04T00:09:35.960Z,9.00
2022-10-04T00:12:06.120Z,11.25
2022-10-04T00:14:39.254Z,10.25
2022-10-04T00:17:13.946Z,10.00
2022-10-04T00:19:45.774Z,10.00
2022-10-04T00:22:21.879Z,9.25
2022-10-04T00:25:19.457Z,9.75
2022-10-04T00:28:31.259Z,10.00
2022-10-04T00:31:22.518Z,9.25
2022-10-04T00:33:58.106Z,10.75
2022-10-04T00:36:53.681Z,9.25
2022-10-04T00:39:42.951Z,16.50
2022-10-04T00:42:29.972Z,6.75
2022-10-04T00:45:02.669Z,8.75
2022-10-04T00:47:55.355Z,9.50
2022-10-04T00:50:34.509Z,10.00
2022-10-04T00:53:12.725Z,8.00
2022-10-04T00:55:49.458Z,9.25
2022-10-04T00:58:24.145Z,6.25
2022-10-04T01:00:56.012Z,6.50
2022-10-04T01:03:32.578Z,5.50
2022-10-04T01:06:05.586Z,8.00
2022-10-04T01:08:38.834Z,7.25
2022-10-04T01:11:15.718Z,4.50
2022-10-04T01:13:53.802Z,6.50
2022-10-04T01:16:27.096Z,9.75
2022-10-04T01:18:55.766Z,7.25
2022-10-04T01:21:30.753Z,10.25
2022-10-04T01:24:21.528Z,9.75
2022-10-04T01:26:48.943Z,12.25
2022-10-04T01:29:18.982Z,10.75
2022-10-04T01:31:49.399Z,9.00
2022-10-04T01:34:20.513Z,7.50
2022-10-04T01:36:51.823Z,9.25
2022-10-04T01:39:23.463Z,8.50
2022-10-04T01:42:00.539Z,7.75
2022-10-04T01:44:36.651Z,10.00
2022-10-04T01:47:09.165Z,9.00
2022-10-04T01:49:42.030Z,8.25
2022-10-04T01:52:18.024Z,8.75
2022-10-04T01:54:59.550Z,8.25
2022-10-04T01:57:35.674Z,5.75
2022-10-04T02:00:07.201Z,8.50
2022-10-04T02:02:43.531Z,8.00
2022-10-04T02:05:17.552Z,8.25
2022-10-04T02:07:47.728Z,6.00
2022-10-04T02:10:22.814Z,7.25
2022-10-04T02:12:54.063Z,6.25
2022-10-04T02:15:24.730Z,5.25
2022-10-04T02:17:55.349Z,6.75
2022-10-04T02:20:27.455Z,7.00
2022-10-04T02:22:59.057Z,4.00
2022-10-04T02:25:27.530Z,6.25
2022-10-04T02:27:55.859Z,7.00
2022-10-04T02:30:24.506Z,5.75
2022-10-04T02:32:57.031Z,9.75
2022-10-04T02:35:27.933Z,8.50
2022-10-04T02:38:09.002Z,9.50
2022-10-04T02:40:47.773Z,12.00
2022-10-04T02:43:23.398Z,8.75
2022-10-04T02:45:59.661Z,7.25
2022-10-04T02:48:36.470Z,8.00
2022-10-04T02:51:19.179Z,9.75
2022-10-04T02:54:03.702Z,8.75
2022-10-04T02:56:33.779Z,7.50
2022-10-04T02:59:03.295Z,9.00
2022-10-04T03:01:46.665Z,10.75
2022-10-04T03:04:14.994Z,7.75
2022-10-04T03:06:44.640Z,10.25
2022-10-04T03:09:13.917Z,9.00
2022-10-04T03:11:43.313Z,7.75
2022-10-04T03:14:18.441Z,6.50
2022-10-04T03:16:49.709Z,9.75
2022-10-04T03:19:19.639Z,8.75
2022-10-04T03:21:49.932Z,12.25
2022-10-04T03:24:23.386Z,6.50
2022-10-04T03:26:55.529Z,8.00
2022-10-04T03:29:27.441Z,9.50
2022-10-04T03:31:57.437Z,8.50
2022-10-04T03:34:31.993Z,11.25
2022-10-04T03:37:01.822Z,12.25
2022-10-04T03:39:33.149Z,9.00
2022-10-04T03:42:07.645Z,10.75
2022-10-04T03:44:35.049Z,8.75
2022-10-04T03:47:08.940Z,10.00
2022-10-04T03:49:38.643Z,10.00
2022-10-04T03:52:13.008Z,9.25
2022-10-04T03:54:41.218Z,9.00
2022-10-04T03:57:10.910Z,7.75
2022-10-04T03:59:38.822Z,8.50
2022-10-04T04:02:18.279Z,9.00
2022-10-04T04:04:58.349Z,9.00
2022-10-04T04:07:36.321Z,11.25
2022-10-04T04:10:16.934Z,9.25
2022-10-04T04:12:53.971Z,8.25
2022-10-04T04:15:21.531Z,7.25
2022-10-04T04:17:54.363Z,9.00
2022-10-04T04:20:28.045Z,9.00
2022-10-04T04:23:02.062Z,9.50
2022-10-04T04:25:34.693Z,8.75
2022-10-04T04:28:16.683Z,10.25
2022-10-04T04:30:49.562Z,9.75
2022-10-04T04:33:30.003Z,10.25
2022-10-04T04:36:05.178Z,10.00
2022-10-04T04:38:33.509Z,7.25
2022-10-04T04:41:10.567Z,6.25
2022-10-04T04:43:44.304Z,8.25
2022-10-04T04:46:27.899Z,8.75
2022-10-04T04:49:04.319Z,5.00
2022-10-04T04:51:33.296Z,5.00
2022-10-04T04:54:06.542Z,7.25
2022-10-04T04:56:35.439Z,3.50
2022-10-04T04:59:07.875Z,7.75
2022-10-04T05:01:43.680Z,5.50
2022-10-04T05:04:20.162Z,17.50
2022-10-04T05:07:00.033Z,9.50
2022-10-04T05:09:32.378Z,9.25
2022-10-04T05:12:08.190Z,8.75
2022-10-04T05:14:41.000Z,11.50
2022-10-04T05:17:15.695Z,8.00
2022-10-04T05:19:42.960Z,9.25
2022-10-04T05:22:14.894Z,10.50
2022-10-04T05:24:46.343Z,9.00
2022-10-04T05:27:17.975Z,8.75
2022-10-04T05:30:02.630Z,9.50
2022-10-04T05:32:49.649Z,10.50
2022-10-04T05:35:19.444Z,13.00
2022-10-04T05:38:07.687Z,8.75
2022-10-04T05:40:45.704Z,9.75
2022-10-04T05:43:31.813Z,8.75
2022-10-04T05:46:23.349Z,8.25
2022-10-04T05:48:58.406Z,8.00
2022-10-04T05:51:28.951Z,6.75
2022-10-04T05:54:01.764Z,10.25
2022-10-04T05:57:01.812Z,8.25
2022-10-04T05:59:48.906Z,10.50
2022-10-04T06:02:37.067Z,7.50
2022-10-04T06:05:14.257Z,8.00
2022-10-04T06:07:53.064Z,7.75
2022-10-04T06:11:03.844Z,7.50
2022-10-04T06:14:07.686Z,8.00
2022-10-04T06:17:00.081Z,10.00
2022-10-04T06:19:59.882Z,10.50
2022-10-04T06:22:27.605Z,8.25
2022-10-04T06:25:03.046Z,8.75
2022-10-04T06:27:38.954Z,12.00
2022-10-04T06:30:13.967Z,11.00
2022-10-04T06:33:17.226Z,10.25
2022-10-04T06:36:57.823Z,7.00
2022-10-04T06:39:56.703Z,6.75
2022-10-04T06:42:54.587Z,7.25
2022-10-04T06:45:49.499Z,5.00
2022-10-04T06:48:49.159Z,3.75
2022-10-04T06:51:37.385Z,4.75
2022-10-04T06:54:29.380Z,4.25
2022-10-04T06:57:27.756Z,5.00
2022-10-04T07:00:09.327Z,5.50
2022-10-04T07:02:43.516Z,7.00
2022-10-04T07:05:31.616Z,6.00
2022-10-04T07:08:14.366Z,5.00
2022-10-04T07:10:53.561Z,6.00
2022-10-04T07:13:39.660Z,6.75
2022-10-04T07:16:25.038Z,6.00
2022-10-04T07:19:05.848Z,10.25
2022-10-04T07:21:41.985Z,8.50
2022-10-04T07:24:21.163Z,8.25
2022-10-04T07:26:52.330Z,9.00
2022-10-04T07:29:25.117Z,8.75
2022-10-04T07:32:12.291Z,6.00
2022-10-04T07:34:48.424Z,7.50
2022-10-04T07:37:16.305Z,6.50
2022-10-04T07:39:57.301Z,7.50
2022-10-04T07:42:33.319Z,27.00
2022-10-04T07:45:13.387Z,3.50
2022-10-04T07:47:41.236Z,4.67
2022-10-04T07:50:23.923Z,6.67
2022-10-04T07:53:00.922Z,7.50
2022-10-04T07:55:49.734Z,8.67
2022-10-04T07:58:38.617Z,6.00
2022-10-04T08:01:20.932Z,8.33
2022-10-04T08:04:18.320Z,7.25
2022-10-04T08:06:57.555Z,7.33
2022-10-04T08:09:48.562Z,8.67
2022-10-04T08:12:27.793Z,7.50
2022-10-04T08:15:15.352Z,7.75
2022-10-04T08:17:57.260Z,6.00
2022-10-04T08:20:39.304Z,6.00
2022-10-04T08:23:27.555Z,4.25
2022-10-04T08:26:14.519Z,4.50
2022-10-04T08:28:58.252Z,6.00
2022-10-04T08:31:40.434Z,6.00
2022-10-04T08:34:31.107Z,5.00
2022-10-04T08:37:17.612Z,3.20
2022-10-04T08:40:17.636Z,7.20
2022-10-04T08:43:28.086Z,4.60
2022-10-04T08:46:38.447Z,5.00
2022-10-04T08:49:38.427Z,6.20
2022-10-04T08:52:33.630Z,5.80
2022-10-04T08:55:33.342Z,5.00
2022-10-04T08:58:25.861Z,4.00
2022-10-04T09:01:46.472Z,5.00
2022-10-04T09:04:59.862Z,5.20
2022-10-04T09:08:25.666Z,5.00
2022-10-04T09:11:30.893Z,6.00
2022-10-04T09:14:30.420Z,4.20
2022-10-04T09:17:22.286Z,2.20
2022-10-04T09:20:20.008Z,1.00
2022-10-04T09:23:02.792Z,2.40
2022-10-04T09:25:54.084Z,3.00
2022-10-04T09:29:08.782Z,4.00
2022-10-04T09:32:35.705Z,4.25
2022-10-04T09:35:58.452Z,3.00
2022-10-04T09:39:25.113Z,3.00
2022-10-04T09:42:38.053Z,4.00
2022-10-04T09:45:47.187Z,3.75
2022-10-04T09:48:35.271Z,4.00
2022-10-04T09:51:58.704Z,2.00
2022-10-04T09:55:01.091Z,3.00
2022-10-04T09:57:53.018Z,4.00
2022-10-04T10:00:22.719Z,3.25
2022-10-04T10:03:34.726Z,3.00
2022-10-04T10:06:43.984Z,4.25
2022-10-04T10:09:26.465Z,3.25
2022-10-04T10:12:19.659Z,4.00
2022-10-04T10:15:24.742Z,6.00
2022-10-04T10:18:11.767Z,5.00
2022-10-04T10:21:10.189Z,5.00
2022-10-04T10:24:04.066Z,4.50
2022-10-04T10:27:07.466Z,2.25
2022-10-04T10:30:03.364Z,4.00
2022-10-04T10:33:24.853Z,3.75
2022-10-04T10:36:36.057Z,2.00
2022-10-04T10:40:12.528Z,2.00
2022-10-04T10:43:01.082Z,2.20
2022-10-04T10:45:55.544Z,1.20
2022-10-04T10:48:47.791Z,3.60
2022-10-04T10:51:30.625Z,3.40
2022-10-04T10:54:43.226Z,3.00
2022-10-04T10:57:40.698Z,3.00
2022-10-04T11:00:21.064Z,3.60
2022-10-04T11:03:43.594Z,3.80
2022-10-04T11:06:55.578Z,2.80
2022-10-04T11:09:33.959Z,3.40
2022-10-04T11:12:55.631Z,2.60
2022-10-04T11:16:19.708Z,3.00
2022-10-04T11:19:43.802Z,2.20
2022-10-04T11:23:20.333Z,2.60
2022-10-04T11:26:23.908Z,2.20
2022-10-04T11:29:03.348Z,3.40
2022-10-04T11:32:05.606Z,2.60
2022-10-04T11:35:34.276Z,2.00
2022-10-04T11:38:13.881Z,2.60
2022-10-04T11:41:07.270Z,2.00
2022-10-04T11:44:07.219Z,3.25
2022-10-04T11:46:48.970Z,2.00
2022-10-04T11:49:49.223Z,2.40
2022-10-04T11:53:04.563Z,1.00
2022-10-04T11:56:08.618Z,3.00
2022-10-04T11:58:54.630Z,2.00
2022-10-04T12:02:06.239Z,2.20
2022-10-04T12:04:58.664Z,2.00
2022-10-04T12:07:44.170Z,3.00
2022-10-04T12:10:23.741Z,1.60
2022-10-04T12:13:27.549Z,2.00
2022-10-04T12:16:21.325Z,3.00
2022-10-04T12:19:39.668Z,2.50
2022-10-04T12:22:47.861Z,2.40
2022-10-04T12:25:47.684Z,3.00
2022-10-04T12:29:04.147Z,2.40
2022-10-04T12:31:35.875Z,2.00
2022-10-04T12:34:22.607Z,3.00
2022-10-04T12:37:16.716Z,4.75
2022-10-04T12:40:14.378Z,2.00
2022-10-04T12:42:58.181Z,3.00
2022-10-04T12:45:54.039Z,1.50
2022-10-04T12:48:50.528Z,2.00
2022-10-04T12:51:52.845Z,1.40
2022-10-04T12:54:39.479Z,2.00
2022-10-04T12:57:32.454Z,1.00
2022-10-04T13:00:16.192Z,0.00
2022-10-04T13:03:26.655Z,3.00
2022-10-04T13:06:10.415Z,1.40
2022-10-04T13:09:06.873Z,2.80
2022-10-04T13:12:07.429Z,2.80
2022-10-04T13:15:19.562Z,2.00
2022-10-04T13:18:05.860Z,2.40
2022-10-04T13:20:53.698Z,2.00
2022-10-04T13:23:48.946Z,2.00
2022-10-04T13:26:40.111Z,2.00
2022-10-04T13:29:21.064Z,3.00
2022-10-04T13:31:56.688Z,2.00
2022-10-04T13:34:40.769Z,1.00
2022-10-04T13:37:30.800Z,3.00
2022-10-04T13:40:24.802Z,2.40
2022-10-04T13:43:23.497Z,2.80
2022-10-04T13:46:06.774Z,3.00
2022-10-04T13:48:50.887Z,1.60
2022-10-04T13:51:49.925Z,2.00
2022-10-04T13:54:35.464Z,2.20
2022-10-04T13:57:24.111Z,2.00
2022-10-04T14:00:02.330Z,2.00
2022-10-04T14:03:07.640Z,2.00
2022-10-04T14:06:35.705Z,2.80
2022-10-04T14:09:45.544Z,1.20
2022-10-04T14:12:48.478Z,2.00
2022-10-04T14:15:44.013Z,1.00
2022-10-04T14:19:14.835Z,1.80
2022-10-04T14:22:10.139Z,2.00
2022-10-04T14:25:42.645Z,2.00
2022-10-04T14:29:03.862Z,1.00
2022-10-04T14:32:08.684Z,1.80
2022-10-04T14:35:00.792Z,1.00
2022-10-04T14:38:04.834Z,2.00
2022-10-04T14:41:10.174Z,1.00
2022-10-04T14:44:29.176Z,0.60
2022-10-04T14:47:18.811Z,1.00
2022-10-04T14:50:14.145Z,2.20
2022-10-04T14:53:04.783Z,0.00
2022-10-04T14:56:04.824Z,1.00
2022-10-04T14:58:50.947Z,0.60
2022-10-04T15:01:22.553Z,1.00
2022-10-04T15:04:13.370Z,4.20
2022-10-04T15:06:48.000Z,1.80
2022-10-04T15:09:55.477Z,2.00
2022-10-04T15:13:09.222Z,1.20
2022-10-04T15:15:57.915Z,1.00
2022-10-04T15:18:44.287Z,1.00
2022-10-04T15:21:35.386Z,0.20
2022-10-04T15:24:23.398Z,1.60
2022-10-04T15:27:21.631Z,1.00
2022-10-04T15:30:10.162Z,1.40
2022-10-04T15:32:49.941Z,2.20
2022-10-04T15:35:39.600Z,1.00
2022-10-04T15:38:26.524Z,1.00
2022-10-04T15:41:02.456Z,2.60
2022-10-04T15:43:42.127Z,1.00
2022-10-04T15:46:42.350Z,2.00
2022-10-04T15:49:46.950Z,1.00
2022-10-04T15:53:03.002Z,1.00
2022-10-04T15:55:56.751Z,1.00
2022-10-04T15:58:55.464Z,1.00
2022-10-04T16:02:05.154Z,1.20
2022-10-04T16:04:44.309Z,1.00
2022-10-04T16:07:56.941Z,2.60
2022-10-04T16:10:32.588Z,1.00
2022-10-04T16:13:39.190Z,0.00
2022-10-04T16:16:41.680Z,2.00
2022-10-04T16:19:32.532Z,1.60
2022-10-04T16:22:13.477Z,1.80
2022-10-04T16:24:46.620Z,1.20
2022-10-04T16:27:47.906Z,1.20
2022-10-04T16:30:28.533Z,1.00
2022-10-04T16:33:29.558Z,1.40
2022-10-04T16:36:13.820Z,2.20
2022-10-04T16:38:47.704Z,2.00
2022-10-04T16:41:37.134Z,1.00
2022-10-04T16:44:12.094Z,1.80
2022-10-04T16:46:42.320Z,1.60
2022-10-04T16:49:26.755Z,2.60
2022-10-04T16:52:27.461Z,1.20
2022-10-04T16:56:10.404Z,3.00
2022-10-04T16:58:59.425Z,11.00
2022-10-04T17:02:16.853Z,7.50
2022-10-04T17:05:18.371Z,8.25
2022-10-04T17:08:15.644Z,2.00
2022-10-04T17:11:12.531Z,1.00
2022-10-04T17:13:56.858Z,3.00
2022-10-04T17:16:35.136Z,3.00
2022-10-04T17:19:28.701Z,3.00
2022-10-04T17:22:15.367Z,2.00
2022-10-04T17:25:01.126Z,3.50
2022-10-04T17:27:47.090Z,2.00
2022-10-04T17:30:19.715Z,3.50
2022-10-04T17:33:19.452Z,3.75
2022-10-04T17:36:39.755Z,2.75
2022-10-04T17:39:33.482Z,3.50
2022-10-04T17:42:15.618Z,3.25
2022-10-04T17:45:06.192Z,3.75
2022-10-04T17:47:42.831Z,3.50
2022-10-04T17:50:18.698Z,2.75
2022-10-04T17:52:54.535Z,2.25
2022-10-04T17:55:27.638Z,3.00
2022-10-04T17:58:08.597Z,3.00
2022-10-04T18:00:55.767Z,29.75
2022-10-04T18:03:35.523Z,10.75
2022-10-04T18:06:16.147Z,11.00
2022-10-04T18:08:54.650Z,6.25
2022-10-04T18:11:34.342Z,7.25
2022-10-04T18:14:10.310Z,6.00
2022-10-04T18:16:49.858Z,9.50
2022-10-04T18:19:51.410Z,9.75
2022-10-04T18:22:21.285Z,7.75
2022-10-04T18:25:11.571Z,6.50
2022-10-04T18:27:51.524Z,3.00
2022-10-04T18:30:20.876Z,3.25
2022-10-04T18:32:51.689Z,5.25
2022-10-04T18:35:27.165Z,5.50
2022-10-04T18:37:57.569Z,4.50
2022-10-04T18:40:31.970Z,4.00
2022-10-04T18:43:00.693Z,3.00
2022-10-04T18:45:30.029Z,4.25
2022-10-04T18:48:00.570Z,5.00
2022-10-04T18:50:38.058Z,6.25
2022-10-04T18:53:33.799Z,8.50
2022-10-04T18:56:05.943Z,5.50
2022-10-04T18:58:58.178Z,7.00
2022-10-04T19:01:49.820Z,7.25
2022-10-04T19:04:30.477Z,8.00
2022-10-04T19:07:11.786Z,8.25
2022-10-04T19:10:01.165Z,11.00
2022-10-04T19:12:41.655Z,10.25
2022-10-04T19:15:29.993Z,13.33
2022-10-04T19:18:22.286Z,11.00
2022-10-04T19:21:01.532Z,9.50
2022-10-04T19:23:43.751Z,20.25
2022-10-04T19:26:37.857Z,22.25
2022-10-04T19:29:25.960Z,20.67
2022-10-04T19:32:00.010Z,15.00
2022-10-04T19:34:44.783Z,13.67
2022-10-04T19:37:25.956Z,13.33
2022-10-04T19:40:09.696Z,9.67
2022-10-04T19:42:50.979Z,11.75
2022-10-04T19:45:34.626Z,10.00
2022-10-04T19:48:11.412Z,8.50
2022-10-04T19:50:46.984Z,11.00
2022-10-04T19:53:19.296Z,7.25
2022-10-04T19:55:55.423Z,10.33
2022-10-04T19:58:36.669Z,10.00
2022-10-04T20:01:11.497Z,10.00
2022-10-04T20:03:39.588Z,9.00
2022-10-04T20:06:08.071Z,10.67
2022-10-04T20:08:52.187Z,9.33
2022-10-04T20:11:23.109Z,8.00
2022-10-04T20:14:54.587Z,10.67
2022-10-04T20:17:33.454Z,10.33
2022-10-04T20:20:01.057Z,10.33
2022-10-04T20:22:55.057Z,10.00
2022-10-04T20:26:02.736Z,11.00
2022-10-04T20:28:43.684Z,10.00
2022-10-04T20:31:27.175Z,8.00
2022-10-04T20:33:54.159Z,8.00
2022-10-04T20:36:50.870Z,10.00
2022-10-04T20:39:59.636Z,13.75
2022-10-04T20:42:37.036Z,20.25
2022-10-04T20:45:25.565Z,14.00
2022-10-04T20:47:54.591Z,17.00
2022-10-04T20:50:38.333Z,10.33
2022-10-04T20:53:15.206Z,9.67
2022-10-04T20:55:42.492Z,11.00
2022-10-04T20:58:30.320Z,11.33
2022-10-04T21:01:01.545Z,11.00
2022-10-04T21:03:28.478Z,10.50
2022-10-04T21:06:02.462Z,3.00
2022-10-04T21:08:30.303Z,12.25
2022-10-04T21:11:21.206Z,9.75
2022-10-04T21:13:55.549Z,8.25
2022-10-04T21:16:44.158Z,12.25
2022-10-04T21:19:48.002Z,10.50
2022-10-04T21:22:35.812Z,10.00
2022-10-04T21:25:21.405Z,11.75
2022-10-04T21:27:48.462Z,16.50
2022-10-04T21:30:17.892Z,10.25
2022-10-04T21:32:46.438Z,10.25
2022-10-04T21:35:13.833Z,10.75
2022-10-04T21:37:40.807Z,11.25
2022-10-04T21:40:09.184Z,11.25
2022-10-04T21:42:35.966Z,8.75
2022-10-04T21:45:03.123Z,11.25
2022-10-04T21:47:30.175Z,12.25
2022-10-04T21:49:58.281Z,9.00
2022-10-04T21:52:25.072Z,11.75
2022-10-04T21:54:52.047Z,22.50
2022-10-04T21:57:18.841Z,17.00
2022-10-04T21:59:45.648Z,12.25
2022-10-04T22:02:12.486Z,10.25
2022-10-04T22:04:39.569Z,7.25
2022-10-04T22:07:07.665Z,12.75
2022-10-04T22:09:34.536Z,6.25
2022-10-04T22:12:01.444Z,7.25
2022-10-04T22:14:28.200Z,12.75
2022-10-04T22:16:54.973Z,13.00
2022-10-04T22:19:21.872Z,12.50
2022-10-04T22:21:48.643Z,11.25
2022-10-04T22:24:20.198Z,11.50
2022-10-04T22:26:47.728Z,11.75
2022-10-04T22:29:17.258Z,9.75
2022-10-04T22:31:49.954Z,12.25
2022-10-04T22:34:19.996Z,14.00
2022-10-04T22:36:50.128Z,13.50
2022-10-04T22:39:20.609Z,13.50
2022-10-04T22:41:53.566Z,12.50
2022-10-04T22:44:25.520Z,11.00
2022-10-04T22:46:55.262Z,12.25
2022-10-04T22:49:26.434Z,13.00
2022-10-04T22:51:55.985Z,12.25
2022-10-04T22:54:27.710Z,13.25
2022-10-04T22:56:56.542Z,15.75
2022-10-04T22:59:33.768Z,16.75
2022-10-04T23:02:10.622Z,17.00
2022-10-04T23:04:37.501Z,20.25
2022-10-04T23:07:04.518Z,14.50
2022-10-04T23:09:32.701Z,20.50
2022-10-04T23:11:59.915Z,18.00
2022-10-04T23:14:27.154Z,15.50
2022-10-04T23:16:53.974Z,19.50
2022-10-04T23:19:20.962Z,16.50
2022-10-04T23:21:49.870Z,12.25
2022-10-04T23:24:19.414Z,12.00
2022-10-04T23:26:54.365Z,11.25
2022-10-04T23:29:24.701Z,9.50
2022-10-04T23:31:52.087Z,10.25
2022-10-04T23:34:23.977Z,10.25
2022-10-04T23:36:52.231Z,10.25
2022-10-04T23:39:24.757Z,8.50
2022-10-04T23:41:55.923Z,10.25
2022-10-04T23:44:29.750Z,9.75
2022-10-04T23:46:56.772Z,8.50
2022-10-04T23:49:23.535Z,8.50
2022-10-04T23:51:59.366Z,8.50
2022-10-04T23:54:26.219Z,7.25
2022-10-04T23:56:54.398Z,9.25
2022-10-04T23:59:26.123Z,11.00
